aviador You're here:

MMZH Decoded Metar

ZIHUATANEJO in MEXICO
Report Time2018-01-19 16:40:00
UTC Time2018-01-19 17:20:05
Flight Rules vfr VFR
Wind230° at 03 kt
W.Decomp.*RWY 26: 2.4 kt HW 1.8 kt LCW
W.Rank230° ranks 3
Current wind is below 230° avg. (7.4)
Visibility9999 m
Phenomena:N/A
Clouds:Broken 250 Hf
Expected CloudBase > 4,000 ft AGL from Temp-Dew spread
Ceiling25,000 ft
Temp30°C (ISA +15)
Dew Point20°C (55% RH)
Heat Index31.9°C
QNH1015 hPa
Density Alt1,985 ft
Elevation20 ft
Report Wrong Elevation
Raw Report
METAR MMZH 191640Z 23003KT 7SM BKN250 30/20 A2998 RMK 8/008 HZY=

Extra information for MMZH:More info

Metar Taf Metar & Taf Last 4 Metars F.Rules Stats Wind Profile Meteogram Temp Stats Airport Information Weather charts Add Link Nearby VenuesMetar ALERT Operation Metar Decoded Social comments